Time;durP1;ratioP1;P1;durP2;ratioP2;P2;SDS_P1;SDS_P2;PMS_P1;PMS_P2;Temp;Humidity;BMP_temperature;BMP_pressure;BME280_temperature;BME280_humidity;BME280_pressure;Samples;Min_cycle;Max_cycle;Signal;HPM_P1;HPM_P2
2021/11/12 00:13:56;;;;;;;39.53;29.77;;;;;;;;;;5055850;28;20289;-74
2021/11/12 00:16:26;;;;;;;35.63;30.37;;;;;;;;;;5054033;28;20217;-74
2021/11/12 00:18:52;;;;;;;37.10;30.60;;;;;;;;;;5056084;28;20319;-74
2021/11/12 00:21:19;;;;;;;39.03;30.17;;;;;;;;;;5055380;28;20701;-74
2021/11/12 00:23:47;;;;;;;39.63;30.80;;;;;;;;;;5055895;28;20223;-74
2021/11/12 00:26:13;;;;;;;35.20;29.37;;;;;;;;;;5054164;28;20223;-74
2021/11/12 00:28:49;;;;;;;37.53;30.60;;;;;;;;;;5056161;28;20248;-74
2021/11/12 00:31:22;;;;;;;39.10;30.37;;;;;;;;;;5055640;28;20230;-74
2021/11/12 00:34:06;;;;;;;39.10;29.93;;;;;;;;;;5054774;28;20773;-74
2021/11/12 00:36:38;;;;;;;37.90;32.03;;;;;;;;;;5055038;28;20876;-74
2021/11/12 00:39:11;;;;;;;39.00;30.10;;;;;;;;;;5055300;28;20282;-74
2021/11/12 00:41:40;;;;;;;38.33;29.17;;;;;;;;;;5055189;28;20318;-74
2021/11/12 00:44:16;;;;;;;40.70;30.03;;;;;;;;;;5053344;28;20235;-74
2021/11/12 00:46:48;;;;;;;38.50;30.70;;;;;;;;;;5055196;28;20208;-74
2021/11/12 00:49:18;;;;;;;37.07;30.90;;;;;;;;;;5054928;28;20230;-74
2021/11/12 00:51:46;;;;;;;38.03;29.93;;;;;;;;;;5054846;28;20229;-74
2021/11/12 00:54:15;;;;;;;36.17;29.40;;;;;;;;;;5055427;28;20639;-74
2021/11/12 00:56:41;;;;;;;39.30;31.33;;;;;;;;;;5055854;28;20224;-73
2021/11/12 00:59:09;;;;;;;40.47;30.70;;;;;;;;;;5054306;28;20295;-74
2021/11/12 01:01:38;;;;;;;35.37;29.03;;;;;;;;;;5055190;28;20251;-74
2021/11/12 01:04:07;;;;;;;37.03;28.53;;;;;;;;;;5054768;28;20731;-74
2021/11/12 01:06:35;;;;;;;37.40;29.57;;;;;;;;;;5055672;28;20278;-74
2021/11/12 01:09:02;;;;;;;39.20;30.00;;;;;;;;;;5054722;28;20252;-74
2021/11/12 01:11:30;;;;;;;35.63;29.83;;;;;;;;;;5055034;28;20209;-74
2021/11/12 01:13:57;;;;;;;37.33;30.17;;;;;;;;;;5053913;28;20231;-74
2021/11/12 01:16:23;;;;;;;37.57;29.73;;;;;;;;;;5053564;28;20237;-74
2021/11/12 01:18:50;;;;;;;36.80;29.10;;;;;;;;;;5054639;28;20633;-74
2021/11/12 01:21:19;;;;;;;36.97;29.57;;;;;;;;;;5056494;28;20232;-74
2021/11/12 01:23:49;;;;;;;35.63;30.37;;;;;;;;;;5053108;28;20216;-74
2021/11/12 01:26:16;;;;;;;35.80;29.23;;;;;;;;;;5054113;28;20213;-74
2021/11/12 01:28:44;;;;;;;40.37;31.53;;;;;;;;;;5054741;28;20237;-74
2021/11/12 01:31:11;;;;;;;37.60;29.83;;;;;;;;;;5054854;28;20212;-74
2021/11/12 01:33:39;;;;;;;37.40;30.33;;;;;;;;;;5053868;28;20243;-74
2021/11/12 01:36:14;;;;;;;35.77;30.03;;;;;;;;;;5054292;28;20235;-74
2021/11/12 01:38:40;;;;;;;37.57;30.73;;;;;;;;;;5054666;28;20208;-74
2021/11/12 01:41:07;;;;;;;38.30;31.07;;;;;;;;;;5053265;28;20224;-74
2021/11/12 01:43:39;;;;;;;39.07;28.77;;;;;;;;;;5054900;28;20216;-74
2021/11/12 01:46:22;;;;;;;40.73;30.80;;;;;;;;;;5053070;28;20320;-74
2021/11/12 01:49:00;;;;;;;37.83;28.63;;;;;;;;;;5053574;28;20215;-74
2021/11/12 01:51:35;;;;;;;41.70;31.60;;;;;;;;;;5054249;28;20245;-74
2021/11/12 01:54:21;;;;;;;38.23;30.43;;;;;;;;;;5052970;28;20210;-74
2021/11/12 01:56:57;;;;;;;38.87;31.23;;;;;;;;;;5053689;28;20294;-74
2021/11/12 01:59:24;;;;;;;39.13;30.23;;;;;;;;;;5054911;28;20254;-74
2021/11/12 02:01:56;;;;;;;36.33;29.87;;;;;;;;;;5053431;28;20225;-74
2021/11/12 02:04:25;;;;;;;40.30;30.60;;;;;;;;;;5052122;28;20240;-74
2021/11/12 02:06:51;;;;;;;36.27;31.20;;;;;;;;;;5052768;28;21157;-74
2021/11/12 02:09:20;;;;;;;39.33;29.93;;;;;;;;;;5053391;28;20252;-74
2021/11/12 02:11:50;;;;;;;41.97;32.33;;;;;;;;;;5053415;28;20216;-74
2021/11/12 02:14:17;;;;;;;39.37;29.43;;;;;;;;;;5054628;28;20281;-74
2021/11/12 02:16:57;;;;;;;33.57;29.83;;;;;;;;;;5052379;28;20720;-74
2021/11/12 02:19:23;;;;;;;39.83;31.97;;;;;;;;;;5053928;28;20216;-74
2021/11/12 02:22:02;;;;;;;37.20;30.37;;;;;;;;;;5054882;28;20284;-74
2021/11/12 02:24:29;;;;;;;40.00;30.80;;;;;;;;;;5053622;28;20206;-74
2021/11/12 02:26:57;;;;;;;40.00;31.50;;;;;;;;;;5054224;28;20223;-74
2021/11/12 02:29:26;;;;;;;39.20;31.20;;;;;;;;;;5054591;28;20244;-74
2021/11/12 02:31:52;;;;;;;37.70;31.13;;;;;;;;;;5054117;28;20208;-74
2021/11/12 02:34:19;;;;;;;39.70;31.00;;;;;;;;;;5052646;28;20238;-74
2021/11/12 02:36:45;;;;;;;38.80;29.87;;;;;;;;;;5051887;28;20592;-74
2021/11/12 02:39:15;;;;;;;40.07;32.23;;;;;;;;;;5052697;28;20273;-74
2021/11/12 02:41:42;;;;;;;42.43;30.63;;;;;;;;;;5052604;28;20214;-74
2021/11/12 02:44:09;;;;;;;37.20;30.33;;;;;;;;;;5051753;28;20296;-74
2021/11/12 02:46:36;;;;;;;39.33;31.30;;;;;;;;;;5053282;28;20268;-74
2021/11/12 02:49:04;;;;;;;38.30;30.53;;;;;;;;;;5053179;28;21217;-74
2021/11/12 02:51:34;;;;;;;41.30;30.77;;;;;;;;;;5051820;28;20232;-74
2021/11/12 02:54:03;;;;;;;36.67;30.77;;;;;;;;;;5051762;28;20235;-74
2021/11/12 02:56:32;;;;;;;41.23;33.23;;;;;;;;;;5052166;28;20242;-74
2021/11/12 02:59:03;;;;;;;41.33;33.73;;;;;;;;;;5052900;28;20254;-75
2021/11/12 03:01:31;;;;;;;42.17;32.20;;;;;;;;;;5052363;28;20211;-74
2021/11/12 03:03:58;;;;;;;38.70;32.83;;;;;;;;;;5054440;28;20701;-74
2021/11/12 03:06:25;;;;;;;40.60;29.93;;;;;;;;;;5055538;28;20382;-74
2021/11/12 03:08:52;;;;;;;36.90;29.30;;;;;;;;;;5056779;28;20234;-74
2021/11/12 03:11:19;;;;;;;36.47;31.40;;;;;;;;;;5056146;28;20212;-74
2021/11/12 03:13:47;;;;;;;38.07;30.40;;;;;;;;;;5056454;28;20306;-74
2021/11/12 03:16:15;;;;;;;37.97;30.30;;;;;;;;;;5056893;28;20236;-74
2021/11/12 03:18:45;;;;;;;39.27;32.77;;;;;;;;;;5056388;28;20266;-74
2021/11/12 03:21:16;;;;;;;36.23;29.73;;;;;;;;;;5057432;28;20243;-74
2021/11/12 03:23:47;;;;;;;34.93;29.97;;;;;;;;;;5055728;28;20246;-74
2021/11/12 03:26:22;;;;;;;37.37;29.23;;;;;;;;;;5056166;28;20620;-74
2021/11/12 03:29:08;;;;;;;40.90;31.27;;;;;;;;;;5057297;28;20231;-74
2021/11/12 03:56:48;;;;;;;38.33;29.87;;;;;;;;;;5055729;28;20309;-74
2021/11/12 04:02:04;;;;;;;40.73;30.67;;;;;;;;;;5054972;28;20250;-74
2021/11/12 04:04:39;;;;;;;43.00;31.73;;;;;;;;;;5055488;28;20299;-74
2021/11/12 04:18:14;;;;;;;40.70;32.03;;;;;;;;;;5055186;28;20224;-74
2021/11/12 05:10:34;;;;;;;48.63;35.27;;;;;;;;;;5054421;28;20311;-74
2021/11/12 05:13:19;;;;;;;44.63;36.03;;;;;;;;;;5053097;28;20220;-74
2021/11/12 05:35:12;;;;;;;38.87;32.00;;;;;;;;;;5053897;28;20363;-77
2021/11/12 05:46:05;;;;;;;37.70;29.50;;;;;;;;;;5054123;28;20336;-77
2021/11/12 05:51:34;;;;;;;38.33;30.43;;;;;;;;;;5053136;28;20699;-77
2021/11/12 05:56:47;;;;;;;39.03;29.13;;;;;;;;;;5053275;28;20755;-77
2021/11/12 05:59:15;;;;;;;42.13;32.20;;;;;;;;;;5054594;28;20268;-77
2021/11/12 06:01:43;;;;;;;38.93;29.27;;;;;;;;;;5054769;28;20246;-77
2021/11/12 06:04:09;;;;;;;41.17;29.43;;;;;;;;;;5052329;28;20241;-78
2021/11/12 06:06:36;;;;;;;40.20;29.37;;;;;;;;;;5054579;28;20770;-77
2021/11/12 06:09:04;;;;;;;41.63;32.03;;;;;;;;;;5054551;28;20585;-77
2021/11/12 06:11:31;;;;;;;41.43;30.07;;;;;;;;;;5054574;28;20214;-77
2021/11/12 06:13:59;;;;;;;39.93;30.77;;;;;;;;;;5053388;28;20223;-77
2021/11/12 06:16:27;;;;;;;38.00;28.80;;;;;;;;;;5054307;28;20657;-77
2021/11/12 06:18:54;;;;;;;39.07;29.20;;;;;;;;;;5053380;28;20276;-77
2021/11/12 06:21:21;;;;;;;39.43;29.30;;;;;;;;;;5053877;28;20588;-77
2021/11/12 06:23:47;;;;;;;39.93;28.77;;;;;;;;;;5055457;28;20262;-76
2021/11/12 06:26:14;;;;;;;43.03;31.63;;;;;;;;;;5053189;28;20222;-78
2021/11/12 06:28:41;;;;;;;38.53;29.90;;;;;;;;;;5052374;28;20284;-77
2021/11/12 06:31:08;;;;;;;44.80;31.13;;;;;;;;;;5053953;28;20210;-78
2021/11/12 06:33:35;;;;;;;41.17;30.83;;;;;;;;;;5054144;28;20237;-77
2021/11/12 06:36:02;;;;;;;39.43;28.97;;;;;;;;;;5052925;28;20229;-77
2021/11/12 06:38:30;;;;;;;45.67;31.23;;;;;;;;;;5052584;28;20211;-77
2021/11/12 06:41:01;;;;;;;47.53;30.77;;;;;;;;;;5053232;28;20292;-77
2021/11/12 06:43:29;;;;;;;40.30;31.80;;;;;;;;;;5057199;28;20211;-77
2021/11/12 06:51:25;;;;;;;40.77;30.83;;;;;;;;;;5056468;28;20704;-77
2021/11/12 06:53:54;;;;;;;43.60;31.90;;;;;;;;;;5056057;28;20657;-77
2021/11/12 06:56:23;;;;;;;39.47;30.90;;;;;;;;;;5056035;28;20754;-77
2021/11/12 06:58:49;;;;;;;42.50;29.63;;;;;;;;;;5055463;28;20241;-77
2021/11/12 07:01:16;;;;;;;37.53;28.90;;;;;;;;;;5055093;28;20222;-77
2021/11/12 07:03:44;;;;;;;41.10;29.63;;;;;;;;;;5056089;28;20305;-77
2021/11/12 07:06:11;;;;;;;40.33;30.17;;;;;;;;;;5055530;28;20222;-77
2021/11/12 07:08:37;;;;;;;43.13;29.10;;;;;;;;;;5055430;28;20222;-77
2021/11/12 07:11:04;;;;;;;40.53;31.40;;;;;;;;;;5056869;28;20218;-77
2021/11/12 07:13:30;;;;;;;42.37;30.53;;;;;;;;;;5058452;28;20218;-77
2021/11/12 07:15:59;;;;;;;40.37;29.87;;;;;;;;;;5056852;28;20287;-77
2021/11/12 07:18:28;;;;;;;37.47;27.87;;;;;;;;;;5056983;28;20660;-75
2021/11/12 07:20:56;;;;;;;37.77;28.87;;;;;;;;;;5055066;28;20226;-75
2021/11/12 07:23:24;;;;;;;35.93;27.77;;;;;;;;;;5054790;28;20536;-75
2021/11/12 07:25:52;;;;;;;41.30;29.63;;;;;;;;;;5053685;28;20214;-75
2021/11/12 07:28:19;;;;;;;35.00;27.53;;;;;;;;;;5054959;28;20206;-76
2021/11/12 07:30:46;;;;;;;33.50;28.23;;;;;;;;;;5054783;28;20218;-75
2021/11/12 07:33:14;;;;;;;40.83;28.30;;;;;;;;;;5054720;28;20881;-75
2021/11/12 07:35:47;;;;;;;40.73;28.87;;;;;;;;;;5054809;28;20704;-75
2021/11/12 07:38:19;;;;;;;38.73;29.43;;;;;;;;;;5054682;28;20206;-76
2021/11/12 07:41:00;;;;;;;39.63;29.87;;;;;;;;;;5053767;28;20268;-75
2021/11/12 07:46:33;;;;;;;31.13;24.40;;;;;;;;;;5012817;28;20377;-78
2021/11/12 07:48:59;;;;;;;32.17;26.03;;;;;;;;;;5047835;28;20213;-78
2021/11/12 07:51:27;;;;;;;36.77;26.83;;;;;;;;;;5052853;28;20279;-77
2021/11/12 07:53:56;;;;;;;33.03;25.50;;;;;;;;;;5053188;28;20207;-77
2021/11/12 07:56:22;;;;;;;35.30;28.10;;;;;;;;;;5055037;28;20372;-79
2021/11/12 07:58:49;;;;;;;35.50;26.73;;;;;;;;;;5055715;28;20819;-78
2021/11/12 08:01:16;;;;;;;37.60;27.87;;;;;;;;;;5057478;28;20289;-78
2021/11/12 08:03:43;;;;;;;34.87;28.47;;;;;;;;;;5055851;28;20223;-78
2021/11/12 08:06:12;;;;;;;36.20;28.50;;;;;;;;;;5053932;28;20309;-78
2021/11/12 08:08:40;;;;;;;35.60;26.60;;;;;;;;;;5056783;28;20213;-78
2021/11/12 08:11:13;;;;;;;36.33;26.43;;;;;;;;;;5055105;28;20210;-77
2021/11/12 08:13:44;;;;;;;35.20;27.10;;;;;;;;;;5056886;28;20314;-78
2021/11/12 08:16:26;;;;;;;34.57;26.83;;;;;;;;;;5054180;28;20229;-78
2021/11/12 08:18:56;;;;;;;35.50;26.97;;;;;;;;;;5056714;28;20248;-78
2021/11/12 08:21:27;;;;;;;33.07;26.70;;;;;;;;;;5053579;28;20264;-78
2021/11/12 08:24:00;;;;;;;38.60;27.37;;;;;;;;;;5057456;28;20206;-78
2021/11/12 08:29:33;;;;;;;33.20;25.20;;;;;;;;;;5053916;28;20600;-78
2021/11/12 08:37:42;;;;;;;34.87;25.87;;;;;;;;;;5056177;28;20591;-77
2021/11/12 08:40:16;;;;;;;31.83;25.33;;;;;;;;;;5055741;28;20283;-78
2021/11/12 08:42:49;;;;;;;32.47;25.07;;;;;;;;;;5055569;28;20379;-78
2021/11/12 08:45:19;;;;;;;36.23;25.13;;;;;;;;;;5057542;28;20341;-77
2021/11/12 08:47:49;;;;;;;33.10;25.10;;;;;;;;;;5053363;28;20210;-76
2021/11/12 08:50:18;;;;;;;34.80;27.07;;;;;;;;;;5054484;28;20296;-76
2021/11/12 08:52:46;;;;;;;30.57;23.43;;;;;;;;;;5051949;28;20238;-76
2021/11/12 08:55:13;;;;;;;33.67;25.87;;;;;;;;;;5054900;28;20220;-76
2021/11/12 08:57:40;;;;;;;34.73;27.83;;;;;;;;;;5052539;28;20233;-75
2021/11/12 09:00:09;;;;;;;38.60;26.57;;;;;;;;;;5053319;28;20218;-76
2021/11/12 09:02:37;;;;;;;34.73;26.97;;;;;;;;;;5053422;28;21625;-76
2021/11/12 09:05:04;;;;;;;34.83;26.83;;;;;;;;;;5052818;28;20649;-76
2021/11/12 09:07:31;;;;;;;33.53;24.10;;;;;;;;;;5053212;28;20222;-77
2021/11/12 09:09:57;;;;;;;33.93;25.10;;;;;;;;;;5051163;28;20271;-76
2021/11/12 09:12:25;;;;;;;37.57;26.60;;;;;;;;;;5052956;28;20875;-76
2021/11/12 09:14:55;;;;;;;32.90;25.37;;;;;;;;;;5052291;28;20236;-76
2021/11/12 09:17:27;;;;;;;32.07;24.93;;;;;;;;;;5053422;28;20236;-76
2021/11/12 09:19:57;;;;;;;37.43;26.90;;;;;;;;;;5052466;28;20297;-76
2021/11/12 09:22:27;;;;;;;32.03;26.50;;;;;;;;;;5051718;28;20214;-76
2021/11/12 09:24:54;;;;;;;32.00;26.00;;;;;;;;;;5052023;28;20481;-76
2021/11/12 09:27:22;;;;;;;34.07;24.40;;;;;;;;;;5053810;28;20214;-75
2021/11/12 09:29:48;;;;;;;31.90;24.90;;;;;;;;;;5052314;28;20230;-75
2021/11/12 09:32:15;;;;;;;34.77;28.07;;;;;;;;;;5050464;28;20219;-76
2021/11/12 09:34:43;;;;;;;29.73;25.23;;;;;;;;;;5054547;28;20245;-76
2021/11/12 09:37:13;;;;;;;33.13;24.13;;;;;;;;;;5051950;28;20693;-75
2021/11/12 09:39:41;;;;;;;32.63;25.27;;;;;;;;;;5053198;28;20207;-78
2021/11/12 09:42:08;;;;;;;37.47;26.73;;;;;;;;;;5050667;28;20257;-77
2021/11/12 09:44:36;;;;;;;32.00;26.13;;;;;;;;;;5052535;28;20262;-77
2021/11/12 09:47:03;;;;;;;32.43;26.23;;;;;;;;;;5052384;28;20686;-77
2021/11/12 09:49:29;;;;;;;39.67;26.33;;;;;;;;;;5053018;28;20290;-77
2021/11/12 09:51:58;;;;;;;37.40;27.63;;;;;;;;;;5051758;28;20222;-77
2021/11/12 09:54:25;;;;;;;32.93;26.27;;;;;;;;;;5053856;28;20232;-78
2021/11/12 09:56:51;;;;;;;33.53;24.53;;;;;;;;;;5054132;28;20288;-77
2021/11/12 09:59:18;;;;;;;36.77;26.23;;;;;;;;;;5051244;28;20230;-77
2021/11/12 10:01:44;;;;;;;31.17;27.40;;;;;;;;;;5053640;28;20312;-78
2021/11/12 10:04:11;;;;;;;33.70;25.57;;;;;;;;;;5053205;28;20279;-78
2021/11/12 10:06:40;;;;;;;34.20;26.50;;;;;;;;;;5055225;28;20226;-78
2021/11/12 10:09:17;;;;;;;37.10;28.27;;;;;;;;;;5052184;28;20209;-75
2021/11/12 10:11:49;;;;;;;36.47;27.50;;;;;;;;;;5052860;28;20220;-79
2021/11/12 10:14:25;;;;;;;37.43;27.77;;;;;;;;;;5054786;28;20236;-78
2021/11/12 10:16:56;;;;;;;37.40;26.40;;;;;;;;;;5055864;28;20242;-77
2021/11/12 10:19:24;;;;;;;36.33;28.33;;;;;;;;;;5055163;28;20222;-77
2021/11/12 10:21:53;;;;;;;38.73;27.03;;;;;;;;;;5057496;28;20284;-77
2021/11/12 10:24:25;;;;;;;37.07;27.20;;;;;;;;;;5055887;28;20206;-76
2021/11/12 10:26:56;;;;;;;37.70;27.70;;;;;;;;;;5055172;28;20206;-76
2021/11/12 10:29:25;;;;;;;41.13;29.17;;;;;;;;;;5055660;28;20314;-77
2021/11/12 10:31:54;;;;;;;33.77;27.47;;;;;;;;;;5055348;28;20219;-77
2021/11/12 10:34:24;;;;;;;33.40;26.33;;;;;;;;;;5055812;28;20627;-74
2021/11/12 10:36:57;;;;;;;40.80;27.73;;;;;;;;;;5054781;28;20233;-74
2021/11/12 10:39:30;;;;;;;34.73;24.70;;;;;;;;;;5057543;28;20221;-74
2021/11/12 10:41:58;;;;;;;36.13;27.33;;;;;;;;;;5054774;28;20868;-74
2021/11/12 10:44:25;;;;;;;33.37;27.17;;;;;;;;;;5055928;28;20251;-74
2021/11/12 10:46:52;;;;;;;33.70;27.60;;;;;;;;;;5055158;28;20707;-74
2021/11/12 10:49:29;;;;;;;32.53;26.13;;;;;;;;;;5056756;28;20261;-74
2021/11/12 10:51:57;;;;;;;41.43;27.83;;;;;;;;;;5055776;28;20857;-74
2021/11/12 10:54:42;;;;;;;37.53;27.17;;;;;;;;;;5054134;28;20215;-74
2021/11/12 10:57:11;;;;;;;36.87;27.77;;;;;;;;;;5054617;28;20309;-74
2021/11/12 10:59:52;;;;;;;31.47;25.27;;;;;;;;;;5056350;28;20230;-74
2021/11/12 11:02:24;;;;;;;33.40;25.13;;;;;;;;;;5055312;28;20219;-74
2021/11/12 11:04:50;;;;;;;37.87;27.00;;;;;;;;;;5054720;28;20627;-74
2021/11/12 11:07:19;;;;;;;35.63;26.03;;;;;;;;;;5053825;28;20304;-74
2021/11/12 11:09:47;;;;;;;38.07;26.37;;;;;;;;;;5054032;28;20276;-74
2021/11/12 11:12:33;;;;;;;38.93;27.20;;;;;;;;;;5054885;28;20237;-74
2021/11/12 11:15:21;;;;;;;34.97;26.50;;;;;;;;;;5054481;28;20233;-73
2021/11/12 11:17:50;;;;;;;35.33;26.23;;;;;;;;;;5054918;28;20237;-76
2021/11/12 11:20:20;;;;;;;35.90;27.13;;;;;;;;;;5056316;28;20218;-76
2021/11/12 11:22:56;;;;;;;36.17;27.10;;;;;;;;;;5056867;28;20226;-76
2021/11/12 11:25:26;;;;;;;37.43;27.70;;;;;;;;;;5055430;28;20210;-76
2021/11/12 11:27:54;;;;;;;36.90;26.77;;;;;;;;;;5055744;28;20210;-73
2021/11/12 11:30:21;;;;;;;40.40;26.70;;;;;;;;;;5053738;28;20227;-73
2021/11/12 11:32:49;;;;;;;40.83;29.57;;;;;;;;;;5055772;28;20234;-73
2021/11/12 11:35:16;;;;;;;43.90;29.70;;;;;;;;;;5053262;28;20229;-74
2021/11/12 11:37:44;;;;;;;39.87;29.77;;;;;;;;;;5055140;28;20234;-76
2021/11/12 11:40:12;;;;;;;39.40;28.30;;;;;;;;;;5054529;28;20226;-73
2021/11/12 11:42:41;;;;;;;37.97;29.20;;;;;;;;;;5054504;28;20292;-76
2021/11/12 11:45:08;;;;;;;53.57;28.80;;;;;;;;;;5054404;28;21045;-77
2021/11/12 11:47:36;;;;;;;42.17;28.93;;;;;;;;;;5052859;28;20209;-76
2021/11/12 11:50:02;;;;;;;33.37;27.23;;;;;;;;;;5056245;28;20210;-76
2021/11/12 11:52:30;;;;;;;34.87;26.50;;;;;;;;;;5054263;28;20231;-76
2021/11/12 11:54:57;;;;;;;37.80;27.10;;;;;;;;;;5053514;28;20226;-76
2021/11/12 11:57:27;;;;;;;37.17;26.40;;;;;;;;;;5054135;28;20235;-76
2021/11/12 12:00:17;;;;;;;36.03;26.93;;;;;;;;;;5053932;28;20232;-76
2021/11/12 12:02:43;;;;;;;31.63;25.80;;;;;;;;;;5053238;28;20221;-76
2021/11/12 12:05:10;;;;;;;34.83;27.03;;;;;;;;;;5052143;28;20732;-76
2021/11/12 12:07:42;;;;;;;39.47;26.57;;;;;;;;;;5054311;28;20228;-76
2021/11/12 12:10:25;;;;;;;37.10;26.93;;;;;;;;;;5052253;28;20214;-76
2021/11/12 12:13:05;;;;;;;32.27;25.67;;;;;;;;;;5053027;28;20215;-76
2021/11/12 12:15:45;;;;;;;33.53;26.40;;;;;;;;;;5054255;28;20226;-76
2021/11/12 12:18:24;;;;;;;36.93;25.47;;;;;;;;;;5054840;28;20557;-76
2021/11/12 12:21:42;;;;;;;36.73;25.03;;;;;;;;;;5052384;28;20787;-76
2021/11/12 13:20:18;;;;;;;24.10;19.40;;;;;;;;;;5052953;28;20567;-76
2021/11/12 13:22:58;;;;;;;27.50;19.70;;;;;;;;;;5054796;28;20224;-77
2021/11/12 13:25:30;;;;;;;28.37;21.70;;;;;;;;;;5053800;28;20240;-76
2021/11/12 13:28:17;;;;;;;25.87;20.63;;;;;;;;;;5053478;28;20276;-77
2021/11/12 13:30:48;;;;;;;25.10;20.50;;;;;;;;;;5054444;28;20227;-77
2021/11/12 13:33:39;;;;;;;26.53;22.27;;;;;;;;;;5052465;28;20723;-76
2021/11/12 13:36:09;;;;;;;32.57;21.93;;;;;;;;;;5055618;28;20343;-76
2021/11/12 13:38:42;;;;;;;28.13;20.73;;;;;;;;;;5054323;28;20585;-77
2021/11/12 13:41:10;;;;;;;35.40;21.83;;;;;;;;;;5050769;28;20211;-76
2021/11/12 13:43:40;;;;;;;26.93;20.93;;;;;;;;;;5054326;28;20223;-76
2021/11/12 13:46:07;;;;;;;23.43;19.93;;;;;;;;;;5054280;28;20238;-76
2021/11/12 13:48:46;;;;;;;27.67;20.37;;;;;;;;;;5054252;28;20576;-76
2021/11/12 13:51:12;;;;;;;25.23;20.30;;;;;;;;;;5051727;28;20227;-76
2021/11/12 13:53:41;;;;;;;25.47;21.10;;;;;;;;;;5053433;28;20245;-76
2021/11/12 13:56:11;;;;;;;24.40;20.57;;;;;;;;;;5053944;28;20276;-77
2021/11/12 13:58:39;;;;;;;29.50;19.13;;;;;;;;;;5052945;28;20581;-76
2021/11/12 14:01:19;;;;;;;25.70;21.47;;;;;;;;;;5052252;28;20341;-76
2021/11/12 14:03:46;;;;;;;28.33;20.60;;;;;;;;;;5051733;28;20231;-76
2021/11/12 14:06:13;;;;;;;27.13;20.37;;;;;;;;;;5052935;28;20272;-76
2021/11/12 14:08:44;;;;;;;27.93;20.60;;;;;;;;;;5051315;28;20232;-76
2021/11/12 14:11:25;;;;;;;25.57;21.20;;;;;;;;;;5053583;28;20214;-76
2021/11/12 14:13:54;;;;;;;28.47;20.13;;;;;;;;;;5052448;28;20261;-76
2021/11/12 14:16:31;;;;;;;28.83;21.43;;;;;;;;;;5051542;28;20648;-76
2021/11/12 14:19:24;;;;;;;29.60;20.53;;;;;;;;;;5053726;28;20230;-76
2021/11/12 14:21:54;;;;;;;28.10;20.90;;;;;;;;;;5053087;28;20224;-76
2021/11/12 14:24:37;;;;;;;28.83;21.77;;;;;;;;;;5053586;28;20208;-76
2021/11/12 14:27:09;;;;;;;26.30;19.80;;;;;;;;;;5052137;28;20216;-76
2021/11/12 14:29:47;;;;;;;25.13;21.33;;;;;;;;;;5053703;28;20213;-76
2021/11/12 14:35:13;;;;;;;28.43;21.67;;;;;;;;;;5051945;28;20614;-76
2021/11/12 14:37:52;;;;;;;24.77;20.50;;;;;;;;;;5054001;28;20232;-76
2021/11/12 14:40:28;;;;;;;27.77;20.47;;;;;;;;;;5052068;28;20247;-76
2021/11/12 14:43:05;;;;;;;25.67;20.00;;;;;;;;;;5052687;28;20203;-76
2021/11/12 14:45:33;;;;;;;27.10;20.97;;;;;;;;;;5052712;28;20226;-76
2021/11/12 14:48:13;;;;;;;25.97;19.83;;;;;;;;;;5053147;28;20208;-76
2021/11/12 14:50:44;;;;;;;26.10;21.87;;;;;;;;;;5051014;28;20268;-76
2021/11/12 14:56:06;;;;;;;26.83;19.67;;;;;;;;;;5052390;28;20385;-76
2021/11/12 14:58:34;;;;;;;25.50;19.33;;;;;;;;;;5051413;28;20265;-76
2021/11/12 15:01:05;;;;;;;25.27;19.63;;;;;;;;;;5053597;28;20228;-76
2021/11/12 15:03:33;;;;;;;28.90;21.33;;;;;;;;;;5055121;28;20256;-76
2021/11/12 15:06:00;;;;;;;26.93;19.73;;;;;;;;;;5055408;28;20580;-76
2021/11/12 15:08:28;;;;;;;28.97;21.43;;;;;;;;;;5054716;28;20478;-76
2021/11/12 15:10:56;;;;;;;27.40;20.90;;;;;;;;;;5055502;28;20288;-76
2021/11/12 15:13:26;;;;;;;26.50;20.97;;;;;;;;;;5055467;28;20301;-76
2021/11/12 15:15:53;;;;;;;30.07;20.80;;;;;;;;;;5056037;28;20207;-76
2021/11/12 15:18:19;;;;;;;30.80;22.30;;;;;;;;;;5056725;28;20345;-76
2021/11/12 15:20:46;;;;;;;30.17;20.17;;;;;;;;;;5055717;28;20231;-76
2021/11/12 15:26:27;;;;;;;31.57;22.60;;;;;;;;;;5013410;28;20226;-76
2021/11/12 15:29:04;;;;;;;29.30;22.50;;;;;;;;;;5050200;28;20624;-76
2021/11/12 15:31:36;;;;;;;29.63;20.07;;;;;;;;;;5053982;28;20214;-76
2021/11/12 15:34:04;;;;;;;28.17;22.60;;;;;;;;;;5055570;28;20241;-76
2021/11/12 15:36:33;;;;;;;34.73;25.30;;;;;;;;;;5053785;28;20227;-76
2021/11/12 15:39:06;;;;;;;33.10;24.73;;;;;;;;;;5054510;28;20230;-76
2021/11/12 15:44:19;;;;;;;31.73;24.17;;;;;;;;;;5055886;28;21102;-76
2021/11/12 15:46:47;;;;;;;34.90;24.07;;;;;;;;;;5056977;28;20610;-76
2021/11/12 15:49:18;;;;;;;38.73;24.13;;;;;;;;;;5055305;28;20644;-76
2021/11/12 15:51:46;;;;;;;38.47;24.27;;;;;;;;;;5054666;28;20701;-76
2021/11/12 15:59:54;;;;;;;32.40;23.47;;;;;;;;;;5047392;28;20241;-76
2021/11/12 16:07:55;;;;;;;34.40;23.87;;;;;;;;;;5021272;28;20578;-76
2021/11/12 16:10:41;;;;;;;35.63;22.97;;;;;;;;;;5055197;28;20270;-76
2021/11/12 16:13:13;;;;;;;36.90;26.07;;;;;;;;;;5054480;28;20229;-76
2021/11/12 16:16:16;;;;;;;33.73;25.67;;;;;;;;;;5055079;28;20234;-76
2021/11/12 16:18:49;;;;;;;31.90;23.73;;;;;;;;;;5054763;28;20249;-76
2021/11/12 16:21:31;;;;;;;33.70;24.77;;;;;;;;;;5055291;28;20240;-76
2021/11/12 16:24:28;;;;;;;32.33;25.07;;;;;;;;;;5055398;28;20936;-76
2021/11/12 16:26:57;;;;;;;30.27;22.93;;;;;;;;;;5054700;28;20742;-76
2021/11/12 16:29:34;;;;;;;36.13;24.57;;;;;;;;;;5054170;28;20226;-76
2021/11/12 16:32:05;;;;;;;30.27;23.33;;;;;;;;;;5053503;28;20619;-76
2021/11/12 16:34:36;;;;;;;29.43;21.87;;;;;;;;;;5055423;28;20237;-76
2021/11/12 16:37:04;;;;;;;30.73;23.07;;;;;;;;;;5055156;28;20247;-76
2021/11/12 16:39:34;;;;;;;37.00;23.60;;;;;;;;;;5055049;28;20226;-76
2021/11/12 16:42:11;;;;;;;32.77;25.40;;;;;;;;;;5055759;28;20333;-76
2021/11/12 16:44:43;;;;;;;34.20;24.80;;;;;;;;;;5054817;28;20238;-76
2021/11/12 16:47:26;;;;;;;34.23;23.50;;;;;;;;;;5054139;28;20667;-76
2021/11/12 16:50:09;;;;;;;29.77;23.50;;;;;;;;;;5053220;28;20198;-76
2021/11/12 16:52:45;;;;;;;32.57;24.43;;;;;;;;;;5055007;28;20232;-76
2021/11/12 16:55:27;;;;;;;32.03;24.03;;;;;;;;;;5055212;28;20623;-76
2021/11/12 16:58:02;;;;;;;29.77;21.00;;;;;;;;;;5054433;28;20734;-76
2021/11/12 17:00:54;;;;;;;31.60;24.50;;;;;;;;;;5054552;28;20787;-76
2021/11/12 17:03:26;;;;;;;31.30;22.20;;;;;;;;;;5053844;28;20226;-76
2021/11/12 17:05:56;;;;;;;29.37;22.23;;;;;;;;;;5053213;28;20231;-76
2021/11/12 17:11:13;;;;;;;25.13;19.10;;;;;;;;;;5041702;28;20740;-76
2021/11/12 17:13:47;;;;;;;27.40;20.53;;;;;;;;;;5053115;28;20227;-76
2021/11/12 17:16:32;;;;;;;29.00;21.77;;;;;;;;;;5054935;28;20214;-76
2021/11/12 17:46:43;;;;;;;25.60;21.20;;;;;;;;;;5054403;28;20220;-76
2021/11/12 17:49:16;;;;;;;26.40;21.43;;;;;;;;;;5053673;28;21250;-76
2021/11/12 17:51:59;;;;;;;29.03;19.53;;;;;;;;;;5053528;28;20566;-76
2021/11/12 18:02:43;;;;;;;32.03;22.90;;;;;;;;;;5054189;28;20229;-76
2021/11/12 18:05:22;;;;;;;28.97;20.30;;;;;;;;;;5052415;28;20206;-75
2021/11/12 18:11:28;;;;;;;29.27;22.97;;;;;;;;;;5052478;28;20245;-75
2021/11/12 18:14:17;;;;;;;28.03;22.57;;;;;;;;;;5052915;28;20236;-76
2021/11/12 18:22:20;;;;;;;30.10;21.47;;;;;;;;;;5052575;28;20287;-75
2021/11/12 21:45:07;;;;;;;22.53;15.80;;;;;;;;;;5056973;28;20324;-73
2021/11/12 21:47:34;;;;;;;25.93;16.97;;;;;;;;;;5056104;28;20532;-73
2021/11/12 21:50:00;;;;;;;20.30;14.93;;;;;;;;;;5056171;28;20215;-73
2021/11/12 21:52:28;;;;;;;20.73;16.13;;;;;;;;;;5056046;28;20227;-73
2021/11/12 21:54:54;;;;;;;22.03;15.70;;;;;;;;;;5056153;28;20216;-73
2021/11/12 21:57:21;;;;;;;23.37;17.10;;;;;;;;;;5057474;28;20221;-73
2021/11/12 21:59:47;;;;;;;22.77;16.23;;;;;;;;;;5058000;28;20744;-73
2021/11/12 22:02:14;;;;;;;20.83;16.77;;;;;;;;;;5056250;28;20266;-73
2021/11/12 22:04:41;;;;;;;21.30;15.97;;;;;;;;;;5055599;28;20228;-73
2021/11/12 22:07:07;;;;;;;19.83;16.63;;;;;;;;;;5056133;28;20286;-73
2021/11/12 22:09:35;;;;;;;22.17;16.77;;;;;;;;;;5053363;28;20210;-73
2021/11/12 22:12:02;;;;;;;21.97;17.47;;;;;;;;;;5055857;28;20237;-73
2021/11/12 22:14:29;;;;;;;21.63;15.80;;;;;;;;;;5056468;28;21300;-73
2021/11/12 22:16:56;;;;;;;19.70;15.77;;;;;;;;;;5054075;28;20679;-73
2021/11/12 22:19:23;;;;;;;23.17;16.73;;;;;;;;;;5054666;28;20249;-73
2021/11/12 22:21:50;;;;;;;20.83;17.93;;;;;;;;;;5055132;28;20372;-73
2021/11/12 22:24:16;;;;;;;20.17;16.20;;;;;;;;;;5052280;28;20234;-73
2021/11/12 22:26:49;;;;;;;21.70;17.67;;;;;;;;;;5056117;28;20301;-73
2021/11/12 22:29:16;;;;;;;19.53;16.00;;;;;;;;;;5056214;28;20690;-73
2021/11/12 22:31:42;;;;;;;23.97;17.13;;;;;;;;;;5052026;28;20216;-73
2021/11/12 22:34:09;;;;;;;20.10;16.97;;;;;;;;;;5057279;28;20679;-73
2021/11/12 22:36:35;;;;;;;24.27;17.93;;;;;;;;;;5055357;28;20273;-72